Terminal Aerodrome Forecast
Issued by NWS Medford, OR

Home | Current Version | Previous Version | Text Only | Print | Product List | Glossary On
Versions: 1 2 3 4 5 6 7 8 9 10 11 12 13 14 15 16 17 18 19 20 21 22 23 24 25
079
FTUS46 KMFR 192320
TAFMFR
TAF
KMFR 192320Z 2000/2024 VRB03KT P6SM -SHRA SCT025 OVC050
     FM200600 VRB03KT P6SM -RA SCT020 OVC040
     FM201900 18015G25KT P6SM OVC050=

USA.gov is the U.S. government's official web portal to all federal, state and local government web resources and services.